OISF  Fasa  Airport

Fasa, Iran

Add Bookmark
ICAO OISF
IATA FAZ
Type Airport
Status Operational
Latitude
28° 53' 30" N
28.891800
Longitude
53° 43' 23" E
53.723301
Local (GMT +4.5 ) UTC
May 6, 2016 07:29 pm May 6, 2016 14:59
Sunrise-Sunset Local UTC
Begin Civil Twilight 05:42 am 01:12
Sunrise 06:08 am 01:38
Sunset 07:35 pm 15:05
End Civil Twilight 08:00 pm 15:30
VFR
VFR
MVFR
MVFR
IFR
IFR
LIFR
LIFR
Unknown
Unavailable

Current Weather

METAR Observed MVFR
OISF 061400Z 23016KT 5000 SA SCT040 SCT200 34/M01 Q1012 Fri, May 6, 2016 @ 14:00 UTC
(59 Minutes ago)
Marginal Visual Flight Rules
Wind Visibility Clouds Conditions
230° at 16 knots (30 kph) 5,005 m
  • Scattered at 4,000 ft AGL
  • Scattered at 20,000 ft AGL
  • Sand
Temperatures Readings Precipitation
Current Temp
34°C
93°F
Dewpoint
-1°C
30°F
Humidity 11%
Altimeter 29.88" Hg
Sea Level Pressure 1,012 mb
Field Elevation
1,383 m
4,537 ft
None Recorded
-
-

CheckWX.com is intended as a tool to help pilots better visualize weather data. It is not intended as a substitute for an official weather briefing obtained from a Flight Service Station. CheckWX.com does not meet the FAA requirements for an official pre-flight weather briefing. Therefore, it's important that pilots still call and obtain an official FSS pre-flight weather briefing.

© 2007-2016 CheckWX.com
14:59:33 UTC